createdAt,value
2018-03-25T00:00:28.510Z,36.20
2018-03-25T00:02:56.306Z,33.40
2018-03-25T00:05:24.052Z,33.90
2018-03-25T00:07:51.887Z,32.47
2018-03-25T00:10:19.770Z,32.13
2018-03-25T00:12:47.580Z,32.10
2018-03-25T00:15:15.307Z,29.77
2018-03-25T00:17:43.126Z,31.57
2018-03-25T00:20:10.937Z,33.57
2018-03-25T00:22:38.716Z,34.10
2018-03-25T00:25:06.440Z,33.60
2018-03-25T00:27:34.220Z,35.20
2018-03-25T00:30:02.055Z,34.80
2018-03-25T00:32:29.788Z,33.50
2018-03-25T00:34:57.630Z,32.33
2018-03-25T00:37:25.367Z,38.50
2018-03-25T00:39:53.489Z,33.43
2018-03-25T00:42:21.247Z,34.77
2018-03-25T00:44:49.070Z,32.77
2018-03-25T00:47:16.809Z,30.90
2018-03-25T00:49:44.637Z,30.63
2018-03-25T00:52:12.374Z,38.20
2018-03-25T00:54:40.241Z,36.10
2018-03-25T00:57:07.957Z,33.90
2018-03-25T00:59:35.914Z,35.70
2018-03-25T01:02:03.633Z,39.00
2018-03-25T01:04:32.080Z,34.00
2018-03-25T01:06:59.712Z,36.70
2018-03-25T01:09:27.566Z,34.10
2018-03-25T01:11:55.265Z,36.63
2018-03-25T01:14:23.097Z,33.00
2018-03-25T01:16:50.833Z,35.53
2018-03-25T01:19:18.654Z,35.23
2018-03-25T01:21:46.565Z,34.17
2018-03-25T01:24:14.337Z,34.40
2018-03-25T01:26:42.073Z,36.07
2018-03-25T01:29:09.902Z,36.07
2018-03-25T01:31:37.650Z,34.20
2018-03-25T01:34:05.473Z,34.20
2018-03-25T01:36:33.222Z,36.10
2018-03-25T01:39:01.044Z,41.57
2018-03-25T01:41:28.779Z,39.70
2018-03-25T01:43:56.627Z,37.40
2018-03-25T01:46:24.352Z,40.73
2018-03-25T01:48:52.181Z,37.30
2018-03-25T01:51:19.927Z,40.77
2018-03-25T01:53:47.700Z,37.63
2018-03-25T01:56:15.488Z,40.70
2018-03-25T01:58:43.331Z,39.30
2018-03-25T02:01:11.067Z,41.33
2018-03-25T02:03:38.891Z,41.67
2018-03-25T02:06:06.637Z,39.73
2018-03-25T02:08:34.423Z,37.80
2018-03-25T02:11:02.256Z,35.00
2018-03-25T02:13:31.110Z,39.30
2018-03-25T02:15:58.946Z,37.50
2018-03-25T02:18:26.692Z,38.47
2018-03-25T02:20:54.547Z,34.30
2018-03-25T02:23:22.256Z,32.33
2018-03-25T02:25:50.080Z,37.27
2018-03-25T02:28:17.819Z,36.03
2018-03-25T02:30:45.643Z,39.23
2018-03-25T02:33:13.401Z,38.13
2018-03-25T02:35:41.134Z,44.13
2018-03-25T02:38:08.858Z,39.97
2018-03-25T02:40:36.696Z,39.83
2018-03-25T02:43:04.434Z,46.13
2018-03-25T02:45:32.266Z,43.90
2018-03-25T02:48:00.017Z,43.60
2018-03-25T02:50:27.839Z,45.10
2018-03-25T02:52:55.576Z,38.03
2018-03-25T02:55:23.407Z,44.57
2018-03-25T02:57:51.081Z,48.57
2018-03-25T03:00:18.815Z,47.57
2018-03-25T03:02:46.503Z,48.77
2018-03-25T03:05:14.234Z,46.00
2018-03-25T03:07:41.916Z,41.57
2018-03-25T03:10:09.635Z,41.43
2018-03-25T03:12:37.322Z,40.73
2018-03-25T03:15:05.058Z,40.37
2018-03-25T03:17:32.756Z,43.07
2018-03-25T03:20:00.536Z,37.80
2018-03-25T03:22:28.246Z,36.70
2018-03-25T03:24:55.969Z,35.33
2018-03-25T03:27:23.657Z,38.60
2018-03-25T03:29:51.470Z,38.37
2018-03-25T03:32:19.408Z,37.37
2018-03-25T03:34:47.253Z,41.03
2018-03-25T03:37:14.981Z,41.40
2018-03-25T03:39:42.721Z,41.33
2018-03-25T03:42:10.446Z,36.17
2018-03-25T03:44:38.269Z,42.83
2018-03-25T03:47:06.014Z,39.07
2018-03-25T03:49:33.841Z,34.87
2018-03-25T03:52:01.594Z,37.10
2018-03-25T03:54:29.368Z,36.03
2018-03-25T03:56:57.198Z,42.60
2018-03-25T03:59:24.938Z,38.73
2018-03-25T04:01:52.796Z,42.93
2018-03-25T04:04:20.524Z,43.03
2018-03-25T04:06:48.332Z,41.83
2018-03-25T04:09:16.083Z,46.67
2018-03-25T04:11:43.909Z,47.10
2018-03-25T04:14:11.645Z,39.83
2018-03-25T04:16:39.379Z,39.37
2018-03-25T04:19:07.118Z,44.53
2018-03-25T04:21:35.002Z,47.67
2018-03-25T04:24:02.786Z,39.27
2018-03-25T04:26:30.619Z,39.83
2018-03-25T04:28:58.355Z,43.03
2018-03-25T04:31:26.184Z,45.70
2018-03-25T04:33:53.924Z,42.90
2018-03-25T04:36:21.752Z,39.90
2018-03-25T04:38:49.523Z,46.33
2018-03-25T04:41:17.326Z,43.80
2018-03-25T04:43:45.068Z,41.40
2018-03-25T04:46:12.898Z,45.40
2018-03-25T04:48:40.655Z,45.10
2018-03-25T04:51:08.469Z,41.90
2018-03-25T04:53:36.207Z,46.93
2018-03-25T04:56:04.116Z,41.93
2018-03-25T04:58:31.882Z,42.07
2018-03-25T05:00:59.596Z,40.10
2018-03-25T05:03:27.346Z,39.23
2018-03-25T05:05:55.169Z,42.40
2018-03-25T05:08:22.921Z,38.93
2018-03-25T05:10:50.755Z,35.60
2018-03-25T05:13:18.448Z,35.50
2018-03-25T05:15:46.196Z,40.67
2018-03-25T05:18:13.889Z,41.73
2018-03-25T05:20:41.669Z,39.50
2018-03-25T05:23:09.368Z,42.27
2018-03-25T05:25:37.087Z,39.10
2018-03-25T05:28:04.821Z,36.00
2018-03-25T05:30:32.542Z,40.23
2018-03-25T05:33:00.232Z,44.03
2018-03-25T05:35:27.941Z,39.50
2018-03-25T05:37:55.677Z,42.77
2018-03-25T05:40:23.375Z,41.77
2018-03-25T05:42:51.126Z,38.67
2018-03-25T05:45:18.861Z,37.93
2018-03-25T05:47:46.698Z,36.83
2018-03-25T05:50:14.449Z,44.17
2018-03-25T05:52:42.267Z,34.70
2018-03-25T05:55:10.009Z,38.03
2018-03-25T05:57:37.738Z,36.53
2018-03-25T06:00:05.505Z,40.77
2018-03-25T06:02:33.311Z,37.90
2018-03-25T06:05:01.059Z,34.37
2018-03-25T06:07:28.869Z,35.33
2018-03-25T06:09:56.559Z,35.60
2018-03-25T06:12:24.301Z,36.30
2018-03-25T06:14:51.981Z,35.77
2018-03-25T06:17:19.721Z,33.93
2018-03-25T06:19:47.456Z,36.00
2018-03-25T06:22:15.278Z,36.80
2018-03-25T06:24:43.008Z,36.83
2018-03-25T06:27:10.744Z,37.47
2018-03-25T06:29:38.492Z,36.73
2018-03-25T06:32:06.322Z,37.20
2018-03-25T06:34:34.053Z,42.10
2018-03-25T06:37:01.885Z,36.43
2018-03-25T06:39:29.645Z,40.20
2018-03-25T06:41:57.498Z,48.20
2018-03-25T06:44:25.352Z,43.50
2018-03-25T06:46:53.132Z,39.80
2018-03-25T06:49:20.839Z,44.20
2018-03-25T06:51:48.605Z,51.10
2018-03-25T06:54:16.430Z,55.40
2018-03-25T06:56:44.186Z,52.63
2018-03-25T06:59:11.912Z,57.47
2018-03-25T07:01:39.775Z,52.93
2018-03-25T07:04:07.474Z,62.80
2018-03-25T07:06:35.336Z,59.33
2018-03-25T07:09:03.163Z,55.10
2018-03-25T07:11:30.989Z,55.73
2018-03-25T07:13:58.755Z,58.27
2018-03-25T07:16:26.523Z,58.30
2018-03-25T07:18:54.336Z,52.63
2018-03-25T07:21:22.108Z,55.27
2018-03-25T07:23:49.893Z,56.67
2018-03-25T07:26:17.650Z,55.40
2018-03-25T07:28:45.470Z,51.40
2018-03-25T07:31:13.207Z,52.57
2018-03-25T07:33:40.949Z,56.70
2018-03-25T07:36:08.683Z,59.20
2018-03-25T07:38:36.511Z,54.50
2018-03-25T07:41:04.283Z,49.83
2018-03-25T07:43:32.117Z,52.33
2018-03-25T07:45:59.814Z,48.87
2018-03-25T07:48:27.653Z,50.63
2018-03-25T07:50:55.403Z,50.20
2018-03-25T07:53:23.271Z,46.07
2018-03-25T07:55:51.042Z,53.20
2018-03-25T07:58:18.880Z,49.40
2018-03-25T08:00:46.620Z,48.63
2018-03-25T08:03:14.443Z,53.67
2018-03-25T08:05:42.240Z,49.70
2018-03-25T08:08:10.033Z,51.67
2018-03-25T08:10:37.767Z,47.87
2018-03-25T08:13:05.605Z,47.37
2018-03-25T08:15:33.340Z,55.20
2018-03-25T08:18:01.174Z,49.70
2018-03-25T08:20:28.933Z,54.40
2018-03-25T08:22:56.774Z,55.33
2018-03-25T08:25:24.479Z,52.73
2018-03-25T08:27:52.358Z,51.80
2018-03-25T08:30:20.191Z,53.50
2018-03-25T08:32:47.990Z,52.47
2018-03-25T08:35:15.754Z,50.00
2018-03-25T08:37:43.575Z,51.53
2018-03-25T08:40:11.294Z,53.90
2018-03-25T08:42:39.147Z,53.80
2018-03-25T08:45:06.894Z,52.23
2018-03-25T08:47:34.707Z,48.97
2018-03-25T08:50:02.421Z,53.63
2018-03-25T08:52:30.203Z,52.43
2018-03-25T08:54:57.929Z,52.43
2018-03-25T08:57:25.689Z,49.60
2018-03-25T08:59:53.461Z,50.17
2018-03-25T09:02:21.182Z,49.77
2018-03-25T09:04:48.968Z,50.90
2018-03-25T09:07:16.721Z,44.43
2018-03-25T09:09:44.494Z,38.30
2018-03-25T09:12:12.245Z,41.53
2018-03-25T09:14:39.987Z,39.43
2018-03-25T09:17:07.710Z,35.90
2018-03-25T09:19:35.454Z,38.50
2018-03-25T09:22:03.254Z,38.30
2018-03-25T09:24:31.050Z,38.70
2018-03-25T09:26:58.790Z,42.53
2018-03-25T09:29:26.601Z,39.70
2018-03-25T09:31:54.426Z,38.97
2018-03-25T09:34:22.203Z,39.93
2018-03-25T09:36:49.926Z,41.67
2018-03-25T09:39:17.706Z,41.83
2018-03-25T09:41:45.446Z,40.50
2018-03-25T09:44:13.206Z,40.20
2018-03-25T09:46:40.923Z,40.73
2018-03-25T09:49:08.710Z,43.13
2018-03-25T09:51:36.420Z,43.80
2018-03-25T09:54:04.250Z,41.40
2018-03-25T09:56:31.967Z,41.80
2018-03-25T09:58:59.713Z,38.40
2018-03-25T10:01:46.065Z,41.53
2018-03-25T10:04:13.822Z,40.43
2018-03-25T10:06:41.591Z,45.10
2018-03-25T10:09:09.406Z,42.13
2018-03-25T10:11:37.152Z,37.50
2018-03-25T10:14:04.991Z,46.10
2018-03-25T10:16:32.699Z,40.60
2018-03-25T10:19:00.580Z,40.27
2018-03-25T10:21:28.492Z,43.43
2018-03-25T10:23:56.634Z,44.40
2018-03-25T10:26:25.313Z,40.50
2018-03-25T10:28:53.128Z,38.00
2018-03-25T10:31:20.813Z,44.00
2018-03-25T10:33:48.594Z,50.57
2018-03-25T10:36:16.327Z,48.13
2018-03-25T10:38:44.081Z,46.60
2018-03-25T10:41:11.825Z,45.17
2018-03-25T10:43:39.539Z,35.57
2018-03-25T10:46:07.606Z,41.67
2018-03-25T10:48:35.365Z,34.90
2018-03-25T10:51:03.102Z,24.17
2018-03-25T10:53:30.938Z,33.50
2018-03-25T10:55:58.729Z,30.27
2018-03-25T10:58:26.475Z,29.57
2018-03-25T11:00:54.330Z,27.47
2018-03-25T11:03:22.054Z,26.23
2018-03-25T11:05:49.893Z,25.07
2018-03-25T11:08:17.633Z,22.63
2018-03-25T11:10:45.452Z,25.37
2018-03-25T11:13:13.151Z,25.37
2018-03-25T11:15:40.895Z,24.80
2018-03-25T11:18:08.618Z,22.50
2018-03-25T11:20:36.540Z,23.40
2018-03-25T11:23:04.538Z,26.00
2018-03-25T11:25:32.355Z,27.07
2018-03-25T11:28:00.096Z,25.17
2018-03-25T11:30:27.973Z,25.23
2018-03-25T11:32:55.798Z,26.17
2018-03-25T11:35:23.562Z,27.17
2018-03-25T11:37:51.294Z,27.00
2018-03-25T11:40:19.070Z,24.50
2018-03-25T11:42:46.761Z,23.17
2018-03-25T11:45:14.539Z,19.17
2018-03-25T11:47:42.223Z,20.60
2018-03-25T11:50:10.015Z,22.40
2018-03-25T11:52:37.749Z,23.73
2018-03-25T11:55:05.536Z,19.97
2018-03-25T11:57:33.257Z,19.40
2018-03-25T12:00:01.027Z,19.23
2018-03-25T12:02:28.765Z,21.60
2018-03-25T12:04:56.534Z,21.30
2018-03-25T12:07:24.373Z,22.37
2018-03-25T12:09:52.214Z,17.97
2018-03-25T12:12:20.005Z,18.00
2018-03-25T12:14:47.879Z,16.00
2018-03-25T12:17:15.583Z,19.07
2018-03-25T12:19:43.350Z,20.67
2018-03-25T12:22:11.113Z,19.40
2018-03-25T12:24:38.854Z,20.53
2018-03-25T12:27:06.575Z,24.00
2018-03-25T12:29:34.323Z,21.30
2018-03-25T12:32:02.032Z,22.53
2018-03-25T12:34:29.747Z,24.17
2018-03-25T12:36:57.554Z,24.93
2018-03-25T12:39:25.242Z,22.83
2018-03-25T12:41:52.970Z,23.50
2018-03-25T12:44:20.717Z,26.40
2018-03-25T12:46:49.202Z,26.10
2018-03-25T12:49:16.946Z,22.67
2018-03-25T12:51:44.690Z,23.33
2018-03-25T12:54:12.428Z,22.83
2018-03-25T12:56:40.194Z,21.40
2018-03-25T12:59:07.930Z,21.67
2018-03-25T13:01:35.746Z,19.53
2018-03-25T13:04:03.491Z,24.70
2018-03-25T13:06:31.255Z,25.10
2018-03-25T13:08:58.974Z,23.93
2018-03-25T13:11:26.738Z,22.90
2018-03-25T13:13:54.471Z,21.27
2018-03-25T13:16:22.197Z,21.90
2018-03-25T13:18:49.922Z,19.17
2018-03-25T13:21:17.738Z,20.47
2018-03-25T13:23:45.454Z,18.30
2018-03-25T13:26:13.223Z,25.57
2018-03-25T13:28:40.944Z,18.60
2018-03-25T13:31:08.746Z,19.30
2018-03-25T13:33:36.475Z,22.63
2018-03-25T13:36:04.252Z,20.33
2018-03-25T13:38:31.963Z,19.17
2018-03-25T13:40:59.703Z,16.60
2018-03-25T13:43:27.415Z,20.10
2018-03-25T13:45:55.150Z,19.93
2018-03-25T13:48:22.907Z,21.20
2018-03-25T13:50:50.727Z,19.10
2018-03-25T13:53:18.463Z,18.50
2018-03-25T13:55:46.220Z,22.63
2018-03-25T13:58:13.974Z,21.40
2018-03-25T14:00:41.721Z,20.83
2018-03-25T14:03:09.446Z,21.00
2018-03-25T14:05:37.206Z,20.13
2018-03-25T14:08:04.943Z,20.40
2018-03-25T14:10:32.819Z,18.93
2018-03-25T14:13:00.586Z,20.53
2018-03-25T14:15:28.411Z,20.67
2018-03-25T14:17:56.142Z,20.23
2018-03-25T14:20:23.906Z,16.87
2018-03-25T14:22:51.671Z,19.40
2018-03-25T14:25:19.396Z,21.53
2018-03-25T14:27:47.139Z,20.47
2018-03-25T14:30:14.865Z,20.17
2018-03-25T14:32:42.654Z,20.27
2018-03-25T14:35:10.408Z,19.23
2018-03-25T14:37:38.194Z,21.73
2018-03-25T14:40:05.951Z,22.43
2018-03-25T14:42:33.716Z,21.07
2018-03-25T14:45:01.462Z,21.10
2018-03-25T14:47:29.316Z,21.97
2018-03-25T14:49:57.071Z,18.47
2018-03-25T14:52:24.815Z,21.90
2018-03-25T14:54:52.534Z,22.37
2018-03-25T14:57:20.291Z,18.40
2018-03-25T14:59:48.031Z,18.83
2018-03-25T15:02:15.803Z,20.60
2018-03-25T15:04:43.550Z,20.50
2018-03-25T15:07:11.275Z,20.10
2018-03-25T15:09:39.010Z,22.17
2018-03-25T15:12:06.761Z,18.87
2018-03-25T15:14:34.470Z,20.23
2018-03-25T15:17:02.243Z,20.07
2018-03-25T15:19:29.967Z,22.33
2018-03-25T15:21:57.770Z,17.97
2018-03-25T15:24:25.538Z,21.70
2018-03-25T15:26:53.311Z,19.63
2018-03-25T15:29:21.034Z,17.57
2018-03-25T15:31:48.809Z,20.13
2018-03-25T15:34:16.510Z,17.20
2018-03-25T15:36:44.258Z,18.23
2018-03-25T15:39:11.979Z,20.83
2018-03-25T15:41:39.760Z,20.77
2018-03-25T15:44:07.495Z,18.87
2018-03-25T15:46:35.246Z,20.33
2018-03-25T15:49:02.981Z,23.63
2018-03-25T15:51:30.742Z,18.57
2018-03-25T15:53:58.461Z,24.50
2018-03-25T15:56:26.251Z,25.77
2018-03-25T15:58:53.997Z,31.90
2018-03-25T16:01:21.730Z,27.10
2018-03-25T16:03:49.520Z,33.17
2018-03-25T16:06:17.264Z,40.73
2018-03-25T16:08:45.022Z,30.67
2018-03-25T16:11:12.755Z,31.60
2018-03-25T16:13:40.492Z,29.70
2018-03-25T16:16:08.177Z,26.90
2018-03-25T16:18:35.939Z,29.03
2018-03-25T16:21:03.703Z,41.73
2018-03-25T16:23:31.495Z,42.27
2018-03-25T16:25:59.215Z,28.70
2018-03-25T16:28:26.971Z,25.60
2018-03-25T16:30:54.703Z,27.40
2018-03-25T16:33:22.458Z,24.73
2018-03-25T16:35:50.170Z,23.03
2018-03-25T16:38:17.930Z,26.20
2018-03-25T16:40:45.655Z,20.03
2018-03-25T16:43:13.403Z,24.63
2018-03-25T16:45:41.126Z,22.10
2018-03-25T16:48:08.910Z,29.63
2018-03-25T16:50:36.629Z,41.40
2018-03-25T16:53:04.425Z,22.50
2018-03-25T16:55:32.122Z,30.40
2018-03-25T16:57:59.894Z,24.70
2018-03-25T17:00:27.629Z,25.67
2018-03-25T17:02:55.413Z,24.17
2018-03-25T17:05:23.124Z,20.70
2018-03-25T17:07:50.894Z,27.70
2018-03-25T17:10:18.634Z,25.50
2018-03-25T17:12:46.397Z,54.53
2018-03-25T17:15:14.183Z,27.77
2018-03-25T17:17:41.929Z,31.53
2018-03-25T17:20:09.664Z,25.40
2018-03-25T17:22:37.435Z,26.73
2018-03-25T17:25:05.214Z,49.67
2018-03-25T17:27:33.027Z,96.93
2018-03-25T17:30:00.811Z,32.27
2018-03-25T17:32:28.663Z,25.17
2018-03-25T17:34:56.473Z,45.83
2018-03-25T17:37:24.323Z,66.50
2018-03-25T17:39:52.143Z,60.57
2018-03-25T17:42:20.026Z,48.20
2018-03-25T17:44:47.824Z,47.43
2018-03-25T17:47:15.543Z,32.90
2018-03-25T17:49:43.316Z,25.00
2018-03-25T17:52:11.004Z,28.30
2018-03-25T17:54:38.755Z,28.60
2018-03-25T17:57:06.506Z,23.57
2018-03-25T17:59:34.294Z,26.03
2018-03-25T18:02:02.011Z,28.13
2018-03-25T18:04:29.767Z,29.57
2018-03-25T18:06:57.459Z,23.47
2018-03-25T18:09:25.202Z,23.80
2018-03-25T18:11:52.909Z,29.40
2018-03-25T18:14:20.672Z,24.40
2018-03-25T18:16:48.394Z,27.33
2018-03-25T18:19:16.154Z,24.30
2018-03-25T18:21:43.901Z,25.27
2018-03-25T18:24:11.662Z,24.10
2018-03-25T18:26:39.375Z,26.90
2018-03-25T18:29:07.095Z,24.40
2018-03-25T18:31:34.799Z,24.77
2018-03-25T18:34:02.530Z,29.37
2018-03-25T18:36:30.225Z,26.87
2018-03-25T18:38:57.979Z,29.50
2018-03-25T18:41:25.699Z,26.20
2018-03-25T18:43:53.461Z,33.93
2018-03-25T18:46:21.202Z,30.20
2018-03-25T18:48:48.934Z,30.77
2018-03-25T18:51:16.656Z,31.60
2018-03-25T18:53:44.413Z,31.43
2018-03-25T18:56:12.143Z,33.33
2018-03-25T18:58:39.895Z,30.13
2018-03-25T19:01:07.600Z,34.27
2018-03-25T19:03:35.443Z,33.37
2018-03-25T19:06:03.147Z,24.90
2018-03-25T19:08:30.983Z,28.37
2018-03-25T19:10:58.622Z,29.47
2018-03-25T19:13:26.346Z,27.90
2018-03-25T19:15:54.087Z,28.10
2018-03-25T19:18:21.939Z,34.03
2018-03-25T19:20:49.719Z,28.87
2018-03-25T19:23:17.436Z,28.47
2018-03-25T19:25:45.202Z,32.50
2018-03-25T19:28:12.916Z,28.13
2018-03-25T19:30:40.705Z,31.80
2018-03-25T19:33:08.446Z,35.37
2018-03-25T19:35:36.187Z,33.03
2018-03-25T19:38:03.922Z,33.07
2018-03-25T19:40:31.724Z,28.87
2018-03-25T19:42:59.464Z,25.80
2018-03-25T19:45:27.235Z,26.67
2018-03-25T19:47:54.983Z,28.20
2018-03-25T19:50:22.762Z,23.37
2018-03-25T19:52:50.501Z,25.17
2018-03-25T19:55:18.233Z,26.23
2018-03-25T19:57:45.998Z,24.17
2018-03-25T20:00:13.823Z,25.07
2018-03-25T20:02:41.586Z,26.00
2018-03-25T20:05:09.406Z,25.83
2018-03-25T20:07:37.132Z,27.90
2018-03-25T20:10:04.947Z,28.70
2018-03-25T20:12:32.690Z,28.80
2018-03-25T20:15:00.467Z,29.47
2018-03-25T20:17:28.187Z,28.10
2018-03-25T20:19:55.941Z,29.50
2018-03-25T20:22:23.710Z,35.60
2018-03-25T20:24:51.451Z,29.63
2018-03-25T20:27:19.166Z,27.83
2018-03-25T20:29:46.942Z,33.67
2018-03-25T20:32:14.644Z,27.50
2018-03-25T20:34:42.443Z,29.50
2018-03-25T20:37:10.133Z,28.07
2018-03-25T20:39:37.853Z,25.70
2018-03-25T20:42:05.558Z,30.87
2018-03-25T20:44:33.273Z,29.30
2018-03-25T20:47:00.998Z,30.50
2018-03-25T20:49:28.780Z,31.30
2018-03-25T20:51:56.503Z,30.57
2018-03-25T20:54:24.322Z,33.00
2018-03-25T20:56:52.042Z,30.97
2018-03-25T20:59:19.818Z,31.90
2018-03-25T21:01:47.551Z,33.90
2018-03-25T21:04:15.250Z,31.33
2018-03-25T21:06:43.027Z,31.83
2018-03-25T21:09:10.740Z,37.43
2018-03-25T21:11:38.480Z,33.00
2018-03-25T21:14:06.203Z,26.87
2018-03-25T21:16:33.959Z,29.17
2018-03-25T21:19:01.710Z,31.40
2018-03-25T21:21:29.550Z,28.60
2018-03-25T21:23:57.295Z,28.20
2018-03-25T21:26:25.432Z,28.20
2018-03-25T21:28:53.265Z,27.63
2018-03-25T21:31:21.114Z,29.00
2018-03-25T21:33:48.817Z,29.53
2018-03-25T21:36:16.669Z,29.07
2018-03-25T21:38:44.515Z,28.17
2018-03-25T21:41:12.362Z,26.47
2018-03-25T21:43:40.179Z,28.30
2018-03-25T21:46:08.014Z,29.63
2018-03-25T21:48:35.806Z,27.73
2018-03-25T21:51:03.698Z,27.17
2018-03-25T21:53:31.498Z,31.63
2018-03-25T21:55:59.347Z,29.53
2018-03-25T21:58:27.106Z,32.10
2018-03-25T22:00:54.931Z,30.03
2018-03-25T22:03:22.670Z,31.70
2018-03-25T22:05:50.508Z,30.77
2018-03-25T22:08:18.212Z,28.40
2018-03-25T22:10:46.083Z,27.17
2018-03-25T22:13:13.873Z,26.90
2018-03-25T22:15:41.709Z,25.70
2018-03-25T22:18:09.452Z,28.20
2018-03-25T22:20:37.350Z,31.30
2018-03-25T22:23:05.130Z,26.00
2018-03-25T22:25:32.944Z,27.33
2018-03-25T22:28:00.697Z,27.53
2018-03-25T22:30:28.526Z,29.13
2018-03-25T22:32:56.276Z,26.83
2018-03-25T22:35:24.113Z,31.00
2018-03-25T22:37:51.935Z,30.20
2018-03-25T22:40:19.774Z,26.57
2018-03-25T22:42:47.640Z,28.33
2018-03-25T22:45:15.427Z,30.40
2018-03-25T22:47:43.216Z,29.73
2018-03-25T22:50:10.994Z,28.90
2018-03-25T22:52:38.794Z,27.57
2018-03-25T22:55:06.529Z,27.63
2018-03-25T22:57:34.346Z,31.67
2018-03-25T23:00:02.109Z,33.33
2018-03-25T23:02:29.918Z,31.87
2018-03-25T23:04:57.677Z,36.60
2018-03-25T23:07:25.709Z,37.27
2018-03-25T23:09:53.458Z,40.90
2018-03-25T23:12:21.307Z,38.13
2018-03-25T23:14:49.121Z,39.53
2018-03-25T23:17:16.930Z,42.37
2018-03-25T23:19:44.676Z,39.63
2018-03-25T23:22:14.481Z,42.13
2018-03-25T23:24:42.184Z,42.00
2018-03-25T23:27:10.009Z,40.67
2018-03-25T23:29:37.791Z,42.83
2018-03-25T23:32:05.609Z,46.33
2018-03-25T23:34:33.342Z,42.03
2018-03-25T23:37:01.178Z,40.03
2018-03-25T23:39:28.892Z,44.43
2018-03-25T23:41:57.022Z,41.60
2018-03-25T23:44:24.783Z,39.20
2018-03-25T23:46:52.588Z,36.47
2018-03-25T23:49:20.345Z,35.53
2018-03-25T23:51:48.180Z,39.13
2018-03-25T23:54:15.912Z,37.07
2018-03-25T23:56:43.736Z,37.77
2018-03-25T23:59:11.485Z,42.00
